Time;durP1;ratioP1;P1;durP2;ratioP2;P2;SDS_P1;SDS_P2;PMS_P1;PMS_P2;Temp;Humidity;BMP_temperature;BMP_pressure;BME280_temperature;BME280_humidity;BME280_pressure;Samples;Min_cycle;Max_cycle;Signal;HPM_P1;HPM_P2
2023/12/19 00:00:33;;;;;;;45.88;23.38;;;;;;;;;;4981115;28;20215;-76
2023/12/19 00:03:21;;;;;;;67.15;31.17;;;;;;;;;;5014932;28;20566;-76
2023/12/19 00:05:49;;;;;;;64.90;26.55;;;;;;;;;;5014591;28;20692;-77
2023/12/19 00:08:16;;;;;;;59.10;25.75;;;;;;;;;;5014344;28;20200;-76
2023/12/19 00:10:43;;;;;;;50.88;25.58;;;;;;;;;;5013181;28;20201;-76
2023/12/19 00:13:10;;;;;;;96.13;33.50;;;;;;;;;;5014187;28;20212;-76
2023/12/19 00:15:37;;;;;;;80.00;32.10;;;;;;;;;;5014180;28;20308;-76
2023/12/19 00:18:05;;;;;;;66.50;28.92;;;;;;;;;;5014039;28;20200;-75
2023/12/19 00:20:32;;;;;;;65.78;27.25;;;;;;;;;;5014156;28;20618;-75
2023/12/19 00:22:59;;;;;;;57.35;26.83;;;;;;;;;;5013920;28;20202;-76
2023/12/19 00:25:27;;;;;;;94.63;37.27;;;;;;;;;;5013492;28;20256;-75
2023/12/19 00:27:55;;;;;;;98.57;32.25;;;;;;;;;;5013697;28;20194;-76
2023/12/19 00:30:22;;;;;;;77.15;30.40;;;;;;;;;;5013812;28;20600;-75
2023/12/19 00:32:49;;;;;;;63.40;28.55;;;;;;;;;;5013683;28;20555;-75
2023/12/19 00:35:16;;;;;;;147.00;53.83;;;;;;;;;;5013819;28;20229;-75
2023/12/19 00:37:43;;;;;;;80.80;29.35;;;;;;;;;;5013571;28;20213;-75
2023/12/19 00:40:13;;;;;;;60.22;26.05;;;;;;;;;;5013671;28;20193;-76
2023/12/19 00:42:41;;;;;;;80.53;28.37;;;;;;;;;;5013528;28;20209;-75
2023/12/19 00:45:10;;;;;;;57.67;24.80;;;;;;;;;;5013474;28;20225;-75
2023/12/19 00:47:38;;;;;;;62.95;26.00;;;;;;;;;;4996332;28;20259;-77
2023/12/19 00:50:07;;;;;;;59.40;24.20;;;;;;;;;;4996571;28;20265;-77
2023/12/19 00:52:35;;;;;;;65.35;25.52;;;;;;;;;;4996073;28;20591;-77
2023/12/19 00:55:03;;;;;;;70.43;27.25;;;;;;;;;;5013285;28;20197;-76
2023/12/19 00:57:32;;;;;;;81.45;34.03;;;;;;;;;;5013541;28;20700;-77
2023/12/19 00:59:59;;;;;;;64.95;27.90;;;;;;;;;;5013590;28;20198;-77
2023/12/19 01:02:29;;;;;;;61.20;26.27;;;;;;;;;;5013234;28;20202;-77
2023/12/19 01:04:57;;;;;;;59.40;26.80;;;;;;;;;;4979657;28;20210;-77
2023/12/19 01:07:24;;;;;;;146.65;53.58;;;;;;;;;;5013239;28;20205;-77
2023/12/19 01:09:52;;;;;;;73.18;29.52;;;;;;;;;;4996051;28;20559;-77
2023/12/19 01:12:20;;;;;;;72.43;29.83;;;;;;;;;;5013357;28;20217;-76
2023/12/19 01:14:47;;;;;;;66.37;30.90;;;;;;;;;;5013234;28;20202;-76
2023/12/19 01:17:14;;;;;;;69.65;29.55;;;;;;;;;;5012972;28;20594;-75
2023/12/19 01:19:41;;;;;;;99.32;34.38;;;;;;;;;;5013038;28;20204;-75
2023/12/19 01:22:09;;;;;;;72.72;29.33;;;;;;;;;;5013032;28;20206;-76
2023/12/19 01:24:36;;;;;;;79.27;30.47;;;;;;;;;;5013128;28;20557;-75
2023/12/19 01:27:03;;;;;;;85.10;31.08;;;;;;;;;;5012920;28;20435;-75
2023/12/19 01:29:30;;;;;;;116.53;49.97;;;;;;;;;;5012890;28;20201;-76
2023/12/19 01:31:57;;;;;;;79.80;28.60;;;;;;;;;;5012714;28;20193;-76
2023/12/19 01:34:24;;;;;;;54.92;25.23;;;;;;;;;;5012927;28;20197;-76
2023/12/19 01:36:54;;;;;;;67.28;27.27;;;;;;;;;;5012135;28;20228;-76
2023/12/19 01:39:24;;;;;;;60.58;25.98;;;;;;;;;;5013122;28;20205;-76
2023/12/19 01:41:52;;;;;;;74.70;28.40;;;;;;;;;;4995491;28;20611;-76
2023/12/19 01:44:19;;;;;;;63.28;26.17;;;;;;;;;;5013100;28;20204;-76
2023/12/19 01:46:47;;;;;;;63.45;25.63;;;;;;;;;;4995503;28;20675;-76
2023/12/19 01:49:14;;;;;;;61.22;25.00;;;;;;;;;;5012914;28;20197;-76
2023/12/19 01:51:42;;;;;;;86.88;31.65;;;;;;;;;;4995190;28;20197;-76
2023/12/19 01:54:09;;;;;;;63.35;24.80;;;;;;;;;;4995734;28;20205;-76
2023/12/19 01:56:37;;;;;;;61.13;22.95;;;;;;;;;;5012406;28;20224;-77
2023/12/19 01:59:05;;;;;;;59.15;23.23;;;;;;;;;;4995228;28;20227;-76
2023/12/19 02:01:35;;;;;;;59.35;25.20;;;;;;;;;;4995262;28;20658;-75
2023/12/19 02:04:03;;;;;;;53.35;20.52;;;;;;;;;;5011518;28;20205;-75
2023/12/19 02:06:34;;;;;;;52.45;20.73;;;;;;;;;;4995407;28;20212;-76
2023/12/19 02:09:02;;;;;;;61.35;22.77;;;;;;;;;;4995357;28;20201;-76
2023/12/19 02:11:29;;;;;;;41.00;18.60;;;;;;;;;;5012623;28;20193;-76
2023/12/19 02:13:58;;;;;;;71.97;25.13;;;;;;;;;;4995293;28;20691;-78
2023/12/19 02:16:26;;;;;;;39.72;18.45;;;;;;;;;;4994933;28;20221;-77
2023/12/19 02:19:03;;;;;;;42.67;19.25;;;;;;;;;;5012219;28;20267;-76
2023/12/19 02:21:31;;;;;;;39.65;17.77;;;;;;;;;;4994993;28;20204;-76
2023/12/19 02:23:58;;;;;;;48.10;20.67;;;;;;;;;;5012253;28;20237;-76
2023/12/19 02:26:26;;;;;;;46.33;18.80;;;;;;;;;;5012359;28;20558;-76
2023/12/19 02:28:53;;;;;;;41.13;17.73;;;;;;;;;;4994890;28;20202;-77
2023/12/19 02:31:20;;;;;;;43.05;18.27;;;;;;;;;;5012295;28;20700;-77
2023/12/19 02:33:48;;;;;;;43.13;20.25;;;;;;;;;;4978875;28;20284;-75
2023/12/19 02:36:16;;;;;;;58.40;19.10;;;;;;;;;;4995078;28;20268;-76
2023/12/19 02:38:43;;;;;;;43.13;17.35;;;;;;;;;;5012127;28;20216;-76
2023/12/19 02:41:11;;;;;;;52.78;18.10;;;;;;;;;;5012304;28;20217;-75
2023/12/19 02:43:38;;;;;;;33.97;16.57;;;;;;;;;;4994692;28;20210;-75
2023/12/19 02:46:23;;;;;;;55.22;18.83;;;;;;;;;;5012237;28;20328;-76
2023/12/19 02:48:50;;;;;;;69.82;22.73;;;;;;;;;;5012996;28;20297;-75
2023/12/19 02:51:21;;;;;;;48.22;19.10;;;;;;;;;;4997484;28;20235;-76
2023/12/19 02:53:48;;;;;;;42.50;16.75;;;;;;;;;;4997706;28;20646;-76
2023/12/19 02:56:15;;;;;;;53.13;21.08;;;;;;;;;;5014834;28;20233;-76
2023/12/19 02:58:42;;;;;;;71.65;22.25;;;;;;;;;;5014397;28;20209;-75
2023/12/19 03:01:10;;;;;;;50.53;18.35;;;;;;;;;;5014406;28;20197;-76
2023/12/19 03:03:40;;;;;;;41.15;16.20;;;;;;;;;;4997173;28;20229;-76
2023/12/19 03:06:07;;;;;;;42.80;18.40;;;;;;;;;;5014606;28;20642;-75
2023/12/19 03:08:35;;;;;;;57.53;17.67;;;;;;;;;;5015124;28;20211;-75
2023/12/19 03:11:02;;;;;;;25.67;12.07;;;;;;;;;;4997951;28;20793;-75
2023/12/19 03:13:29;;;;;;;39.78;14.90;;;;;;;;;;5015445;28;20201;-75
2023/12/19 03:15:56;;;;;;;51.15;16.35;;;;;;;;;;5015241;28;20205;-75
2023/12/19 03:18:26;;;;;;;56.55;20.38;;;;;;;;;;5015335;28;20213;-77
2023/12/19 03:20:54;;;;;;;50.08;16.42;;;;;;;;;;5015250;28;20201;-76
2023/12/19 03:23:21;;;;;;;48.28;15.55;;;;;;;;;;5015259;28;20228;-76
2023/12/19 03:25:49;;;;;;;39.20;13.82;;;;;;;;;;5015492;28;20201;-76
2023/12/19 03:28:16;;;;;;;57.90;22.13;;;;;;;;;;4997591;28;20260;-76
2023/12/19 03:30:44;;;;;;;83.47;19.87;;;;;;;;;;5014949;28;20674;-75
2023/12/19 03:33:11;;;;;;;35.67;12.80;;;;;;;;;;5014775;28;20211;-75
2023/12/19 03:35:38;;;;;;;52.50;16.17;;;;;;;;;;5013729;28;20201;-75
2023/12/19 03:38:05;;;;;;;97.82;28.52;;;;;;;;;;5014689;28;20575;-76
2023/12/19 03:40:33;;;;;;;49.10;14.35;;;;;;;;;;5014819;28;20558;-76
2023/12/19 03:43:00;;;;;;;64.78;17.25;;;;;;;;;;4997298;28;20565;-75
2023/12/19 03:45:27;;;;;;;37.05;12.45;;;;;;;;;;5014778;28;20205;-75
2023/12/19 03:47:54;;;;;;;40.58;14.35;;;;;;;;;;5014299;28;20267;-75
2023/12/19 03:50:22;;;;;;;122.80;28.92;;;;;;;;;;5014753;28;20232;-75
2023/12/19 03:52:49;;;;;;;60.58;16.40;;;;;;;;;;5014326;28;20240;-75
2023/12/19 03:55:16;;;;;;;25.02;10.27;;;;;;;;;;5014699;28;20193;-75
2023/12/19 03:57:43;;;;;;;50.42;16.20;;;;;;;;;;5014368;28;20229;-76
2023/12/19 04:00:11;;;;;;;92.25;34.67;;;;;;;;;;5012923;28;20197;-76
2023/12/19 04:02:38;;;;;;;66.03;14.90;;;;;;;;;;5014483;28;20217;-76
2023/12/19 04:05:05;;;;;;;42.57;12.83;;;;;;;;;;5014611;28;20655;-76
2023/12/19 04:07:32;;;;;;;28.70;10.13;;;;;;;;;;5014292;28;20209;-75
2023/12/19 04:10:00;;;;;;;25.50;10.65;;;;;;;;;;5014413;28;20213;-76
2023/12/19 04:12:28;;;;;;;44.42;13.93;;;;;;;;;;5014100;28;20309;-76
2023/12/19 04:14:55;;;;;;;31.65;9.93;;;;;;;;;;5014127;28;20647;-76
2023/12/19 04:17:22;;;;;;;22.17;8.80;;;;;;;;;;4996660;28;20222;-76
2023/12/19 04:19:50;;;;;;;20.70;8.68;;;;;;;;;;5013874;28;20655;-76
2023/12/19 04:22:17;;;;;;;43.03;16.45;;;;;;;;;;5014101;28;20193;-77
2023/12/19 04:24:44;;;;;;;30.05;10.93;;;;;;;;;;5008813;28;20213;-76
2023/12/19 04:27:11;;;;;;;24.02;9.07;;;;;;;;;;4994217;28;20257;-75
2023/12/19 04:29:39;;;;;;;21.20;8.83;;;;;;;;;;4994443;28;20202;-75
2023/12/19 04:32:06;;;;;;;35.83;14.23;;;;;;;;;;4994459;28;20252;-76
2023/12/19 04:34:33;;;;;;;27.13;9.73;;;;;;;;;;4994486;28;20202;-76
2023/12/19 04:37:00;;;;;;;22.13;8.60;;;;;;;;;;4994319;28;20214;-75
2023/12/19 04:39:28;;;;;;;29.13;9.93;;;;;;;;;;4994351;28;20210;-76
2023/12/19 04:41:55;;;;;;;19.80;8.97;;;;;;;;;;4996793;28;20209;-78
2023/12/19 04:44:22;;;;;;;29.50;12.10;;;;;;;;;;5014108;28;20205;-78
2023/12/19 04:46:49;;;;;;;23.03;9.13;;;;;;;;;;5012697;28;20197;-76
2023/12/19 04:49:16;;;;;;;23.13;8.33;;;;;;;;;;5012128;28;20255;-76
2023/12/19 04:51:43;;;;;;;21.87;8.77;;;;;;;;;;5012887;28;20280;-78
2023/12/19 04:54:11;;;;;;;52.20;16.67;;;;;;;;;;4980032;28;20190;-78
2023/12/19 04:56:38;;;;;;;23.20;9.10;;;;;;;;;;5012870;28;20197;-78
2023/12/19 04:59:05;;;;;;;20.75;8.52;;;;;;;;;;4993990;28;20206;-78
2023/12/19 05:01:32;;;;;;;25.63;10.13;;;;;;;;;;4993833;28;20206;-78
2023/12/19 05:04:00;;;;;;;25.20;10.27;;;;;;;;;;4993626;28;20198;-78
2023/12/19 05:06:27;;;;;;;54.80;15.73;;;;;;;;;;5004858;28;20201;-78
2023/12/19 05:08:55;;;;;;;54.45;16.63;;;;;;;;;;5000735;28;20217;-77
2023/12/19 05:11:22;;;;;;;25.23;11.03;;;;;;;;;;5011724;28;20333;-78
2023/12/19 05:13:49;;;;;;;40.47;12.43;;;;;;;;;;5009518;28;20241;-78
2023/12/19 05:16:18;;;;;;;57.30;18.43;;;;;;;;;;5012242;28;20304;-77
2023/12/19 05:18:46;;;;;;;57.07;25.27;;;;;;;;;;5011268;28;20240;-77
2023/12/19 05:21:13;;;;;;;26.87;12.50;;;;;;;;;;5011784;28;20221;-79
2023/12/19 05:23:41;;;;;;;33.47;12.23;;;;;;;;;;4992130;28;20242;-79
2023/12/19 05:26:08;;;;;;;35.47;15.40;;;;;;;;;;5011293;28;20260;-78
2023/12/19 05:28:37;;;;;;;51.03;15.57;;;;;;;;;;5011496;28;20284;-78
2023/12/19 05:31:04;;;;;;;36.30;12.37;;;;;;;;;;5012218;28;20642;-77
2023/12/19 05:33:33;;;;;;;28.17;10.18;;;;;;;;;;5011537;28;20252;-77
2023/12/19 05:36:01;;;;;;;38.17;12.83;;;;;;;;;;4993767;28;20218;-79
2023/12/19 05:38:31;;;;;;;39.47;11.63;;;;;;;;;;5009939;28;20306;-79
2023/12/19 05:40:58;;;;;;;31.98;10.95;;;;;;;;;;5010961;28;20899;-80
2023/12/19 05:43:26;;;;;;;81.50;20.30;;;;;;;;;;5010555;28;20237;-80
2023/12/19 05:45:52;;;;;;;33.75;12.00;;;;;;;;;;5011735;28;20252;-79
2023/12/19 05:48:22;;;;;;;93.23;26.07;;;;;;;;;;5010400;28;20236;-80
2023/12/19 05:50:51;;;;;;;48.07;14.10;;;;;;;;;;5011093;28;20616;-80
2023/12/19 05:53:19;;;;;;;53.40;15.80;;;;;;;;;;5010386;28;20240;-80
2023/12/19 05:55:47;;;;;;;38.72;12.35;;;;;;;;;;5011477;28;20240;-79
2023/12/19 05:58:14;;;;;;;70.50;21.27;;;;;;;;;;5011506;28;20263;-79
2023/12/19 06:00:41;;;;;;;36.83;12.05;;;;;;;;;;5019958;28;20229;-80
2023/12/19 06:03:09;;;;;;;41.77;12.77;;;;;;;;;;5018643;28;20445;-79
2023/12/19 06:05:39;;;;;;;55.63;17.83;;;;;;;;;;5015551;28;20697;-79
2023/12/19 06:08:07;;;;;;;36.50;12.25;;;;;;;;;;5012680;28;20745;-79
2023/12/19 06:10:34;;;;;;;83.23;20.10;;;;;;;;;;5010201;28;20229;-79
2023/12/19 06:13:01;;;;;;;45.73;13.20;;;;;;;;;;5026574;28;20228;-79
2023/12/19 06:15:28;;;;;;;30.73;9.48;;;;;;;;;;5026136;28;20748;-79
2023/12/19 06:17:56;;;;;;;108.43;43.93;;;;;;;;;;5021710;28;20217;-79
2023/12/19 06:20:22;;;;;;;79.53;29.27;;;;;;;;;;5008933;28;20232;-80
2023/12/19 06:22:50;;;;;;;43.53;13.43;;;;;;;;;;5022711;28;20201;-80
2023/12/19 06:25:17;;;;;;;31.90;10.70;;;;;;;;;;5020051;28;20220;-79
2023/12/19 06:27:44;;;;;;;22.77;10.13;;;;;;;;;;5032741;28;20201;-80
2023/12/19 06:30:12;;;;;;;33.70;12.17;;;;;;;;;;5024107;28;20283;-79
2023/12/19 06:32:53;;;;;;;26.80;10.82;;;;;;;;;;5030685;28;20211;-79
2023/12/19 06:35:21;;;;;;;24.17;9.17;;;;;;;;;;5035759;28;20212;-79
2023/12/19 06:37:49;;;;;;;33.23;10.87;;;;;;;;;;5035374;28;20241;-79
2023/12/19 06:40:16;;;;;;;27.37;10.20;;;;;;;;;;5031162;28;20200;-79
2023/12/19 06:42:44;;;;;;;32.13;11.63;;;;;;;;;;5019138;28;20200;-80
2023/12/19 06:45:12;;;;;;;21.17;8.63;;;;;;;;;;5030007;28;20197;-79
2023/12/19 06:47:40;;;;;;;34.63;10.30;;;;;;;;;;5015599;28;20267;-79
2023/12/19 06:50:08;;;;;;;27.83;9.30;;;;;;;;;;5015519;28;20599;-79
2023/12/19 06:52:35;;;;;;;26.93;13.13;;;;;;;;;;5015273;28;20368;-79
2023/12/19 06:55:02;;;;;;;52.55;12.70;;;;;;;;;;5015214;28;20213;-80
2023/12/19 06:57:30;;;;;;;41.87;11.20;;;;;;;;;;4997858;28;20237;-79
2023/12/19 06:59:57;;;;;;;23.83;9.10;;;;;;;;;;5015442;28;20758;-79
2023/12/19 07:02:24;;;;;;;47.70;12.80;;;;;;;;;;5015516;28;20213;-79
2023/12/19 07:04:51;;;;;;;33.37;10.60;;;;;;;;;;5015165;28;20208;-79
2023/12/19 07:07:18;;;;;;;21.42;8.68;;;;;;;;;;5029237;28;20248;-79
2023/12/19 07:09:45;;;;;;;26.83;10.27;;;;;;;;;;5034890;28;20203;-79
2023/12/19 07:12:13;;;;;;;35.67;10.87;;;;;;;;;;5035154;28;20681;-80
2023/12/19 07:14:41;;;;;;;36.57;13.00;;;;;;;;;;5035041;28;20205;-79
2023/12/19 07:17:08;;;;;;;61.07;15.47;;;;;;;;;;5034715;28;20220;-79
2023/12/19 07:19:35;;;;;;;24.52;8.93;;;;;;;;;;5034788;28;20201;-79
2023/12/19 07:22:03;;;;;;;26.57;9.33;;;;;;;;;;5034969;28;20208;-79
2023/12/19 07:24:30;;;;;;;113.47;32.33;;;;;;;;;;5034501;28;20197;-79
2023/12/19 07:26:58;;;;;;;43.83;13.13;;;;;;;;;;5034811;28;20193;-79
2023/12/19 07:29:25;;;;;;;38.00;11.33;;;;;;;;;;5034748;28;20203;-79
2023/12/19 07:31:52;;;;;;;36.97;10.40;;;;;;;;;;5034743;28;20275;-79
2023/12/19 07:34:19;;;;;;;29.70;9.60;;;;;;;;;;5034031;28;20259;-79
2023/12/19 07:36:47;;;;;;;45.42;12.23;;;;;;;;;;5033930;28;20196;-79
2023/12/19 07:39:14;;;;;;;25.88;8.30;;;;;;;;;;5034240;28;20228;-80
2023/12/19 07:41:41;;;;;;;23.65;8.43;;;;;;;;;;5034755;28;20196;-79
2023/12/19 07:44:14;;;;;;;24.50;8.80;;;;;;;;;;5034457;28;20754;-78
2023/12/19 07:46:42;;;;;;;16.55;8.18;;;;;;;;;;5034493;28;20211;-79
2023/12/19 07:49:10;;;;;;;32.15;9.88;;;;;;;;;;5034180;28;20215;-79
2023/12/19 07:51:38;;;;;;;31.55;11.10;;;;;;;;;;5034207;28;20244;-79
2023/12/19 07:54:05;;;;;;;29.88;10.00;;;;;;;;;;5034078;28;20200;-80
2023/12/19 07:56:32;;;;;;;30.40;10.98;;;;;;;;;;5034057;28;20196;-79
2023/12/19 07:58:59;;;;;;;37.53;9.67;;;;;;;;;;5034168;28;20238;-80
2023/12/19 08:01:26;;;;;;;33.72;10.45;;;;;;;;;;5034154;28;20293;-79
2023/12/19 08:03:53;;;;;;;25.00;9.45;;;;;;;;;;5033807;28;20267;-79
2023/12/19 08:06:21;;;;;;;27.63;10.20;;;;;;;;;;5033876;28;20263;-79
2023/12/19 08:08:52;;;;;;;29.88;9.65;;;;;;;;;;5033991;28;20270;-79
2023/12/19 08:11:19;;;;;;;45.77;12.17;;;;;;;;;;5034196;28;20209;-79
2023/12/19 08:13:50;;;;;;;56.20;13.52;;;;;;;;;;5033856;28;20204;-79
2023/12/19 08:16:18;;;;;;;30.53;9.60;;;;;;;;;;5031077;28;20642;-79
2023/12/19 08:18:45;;;;;;;46.15;18.95;;;;;;;;;;5013873;28;20228;-79
2023/12/19 08:21:13;;;;;;;44.27;12.07;;;;;;;;;;5013894;28;20213;-79
2023/12/19 08:23:42;;;;;;;32.70;9.97;;;;;;;;;;5013858;28;20205;-79
2023/12/19 08:26:10;;;;;;;22.77;9.00;;;;;;;;;;5013909;28;20209;-79
2023/12/19 08:28:37;;;;;;;31.13;11.97;;;;;;;;;;5013657;28;20209;-79
2023/12/19 08:31:04;;;;;;;59.78;13.20;;;;;;;;;;4996575;28;20217;-79
2023/12/19 08:33:32;;;;;;;38.03;10.88;;;;;;;;;;5013608;28;20208;-79
2023/12/19 08:35:59;;;;;;;39.08;11.68;;;;;;;;;;5013810;28;20201;-79
2023/12/19 08:38:26;;;;;;;29.33;9.95;;;;;;;;;;5013505;28;20287;-79
2023/12/19 08:40:53;;;;;;;31.80;12.40;;;;;;;;;;5013694;28;20201;-79
2023/12/19 08:43:20;;;;;;;29.10;10.43;;;;;;;;;;5013436;28;20212;-79
2023/12/19 08:45:48;;;;;;;41.17;10.88;;;;;;;;;;5013077;28;20285;-79
2023/12/19 08:48:16;;;;;;;37.85;12.45;;;;;;;;;;5028034;28;20579;-79
2023/12/19 08:50:44;;;;;;;141.93;46.13;;;;;;;;;;5033114;28;20243;-79
2023/12/19 08:53:12;;;;;;;71.30;16.13;;;;;;;;;;5032922;28;20232;-79
2023/12/19 08:55:42;;;;;;;37.50;11.63;;;;;;;;;;5033185;28;20215;-79
2023/12/19 08:58:09;;;;;;;36.30;10.82;;;;;;;;;;5032588;28;20316;-79
2023/12/19 09:00:37;;;;;;;22.42;9.02;;;;;;;;;;5032828;28;20205;-79
2023/12/19 09:03:05;;;;;;;50.03;12.45;;;;;;;;;;5032628;28;20677;-79
2023/12/19 09:05:33;;;;;;;41.35;10.98;;;;;;;;;;5032975;28;20233;-79
2023/12/19 09:08:01;;;;;;;35.72;10.98;;;;;;;;;;5031294;28;20223;-79
2023/12/19 09:10:29;;;;;;;38.47;12.75;;;;;;;;;;5024137;28;20193;-78
2023/12/19 09:12:57;;;;;;;35.30;13.73;;;;;;;;;;5012836;28;20220;-79
2023/12/19 09:15:25;;;;;;;55.75;13.27;;;;;;;;;;5013157;28;20209;-79
2023/12/19 09:17:52;;;;;;;34.30;10.65;;;;;;;;;;5012857;28;20208;-78
2023/12/19 09:20:21;;;;;;;39.97;11.63;;;;;;;;;;5013293;28;20209;-78
2023/12/19 09:22:48;;;;;;;71.10;24.23;;;;;;;;;;5025086;28;20287;-79
2023/12/19 09:25:16;;;;;;;43.75;12.70;;;;;;;;;;5032666;28;20204;-79
2023/12/19 09:27:44;;;;;;;32.42;9.57;;;;;;;;;;5032493;28;20299;-79
2023/12/19 09:30:12;;;;;;;24.92;8.30;;;;;;;;;;5032443;28;20216;-79
2023/12/19 09:32:40;;;;;;;20.83;8.15;;;;;;;;;;5027910;28;20253;-79
2023/12/19 09:35:10;;;;;;;46.33;13.52;;;;;;;;;;5012673;28;20213;-79
2023/12/19 09:37:38;;;;;;;19.00;8.40;;;;;;;;;;5012624;28;20205;-79
2023/12/19 09:40:13;;;;;;;21.67;8.85;;;;;;;;;;5028782;28;20204;-79
2023/12/19 09:42:40;;;;;;;23.60;8.77;;;;;;;;;;5032760;28;20204;-79
2023/12/19 09:45:08;;;;;;;31.70;10.30;;;;;;;;;;5030863;28;20258;-79
2023/12/19 09:47:38;;;;;;;36.50;10.80;;;;;;;;;;5014930;28;20204;-79
2023/12/19 09:50:12;;;;;;;32.50;11.05;;;;;;;;;;5032148;28;20681;-79
2023/12/19 09:52:41;;;;;;;21.95;8.15;;;;;;;;;;5014576;28;20243;-79
2023/12/19 09:55:10;;;;;;;27.30;13.45;;;;;;;;;;5032052;28;20216;-79
2023/12/19 09:57:38;;;;;;;19.45;7.78;;;;;;;;;;5032066;28;20208;-79
2023/12/19 10:00:09;;;;;;;22.52;8.23;;;;;;;;;;5034965;28;20242;-79
2023/12/19 10:02:36;;;;;;;20.92;8.15;;;;;;;;;;5002493;28;20205;-79
2023/12/19 10:05:04;;;;;;;29.88;10.93;;;;;;;;;;5036128;28;20216;-79
2023/12/19 10:07:31;;;;;;;35.70;11.38;;;;;;;;;;5036176;28;20205;-79
2023/12/19 10:10:03;;;;;;;25.65;8.00;;;;;;;;;;5019219;28;20219;-79
2023/12/19 10:12:31;;;;;;;23.30;8.18;;;;;;;;;;5036315;28;20214;-79
2023/12/19 10:15:12;;;;;;;22.98;8.95;;;;;;;;;;5035899;28;20208;-78
2023/12/19 10:18:01;;;;;;;34.63;9.25;;;;;;;;;;5035975;28;20239;-79
2023/12/19 10:20:29;;;;;;;22.30;8.98;;;;;;;;;;5036034;28;20339;-79
2023/12/19 10:23:04;;;;;;;25.33;8.88;;;;;;;;;;5035884;28;20208;-79
2023/12/19 10:25:32;;;;;;;27.83;9.48;;;;;;;;;;5035995;28;20200;-79
2023/12/19 10:28:12;;;;;;;29.25;11.80;;;;;;;;;;5035940;28;20212;-78
2023/12/19 10:30:40;;;;;;;31.92;9.77;;;;;;;;;;5035401;28;20327;-79
2023/12/19 10:33:08;;;;;;;21.65;9.40;;;;;;;;;;5035546;28;20228;-78
2023/12/19 10:35:38;;;;;;;22.02;8.98;;;;;;;;;;5035700;28;20209;-79
2023/12/19 10:38:06;;;;;;;15.55;7.68;;;;;;;;;;5035485;28;20211;-79
2023/12/19 10:40:39;;;;;;;31.60;9.15;;;;;;;;;;5034631;28;20674;-79
2023/12/19 10:43:06;;;;;;;21.15;7.88;;;;;;;;;;5035712;28;20212;-79
2023/12/19 10:45:36;;;;;;;15.68;6.63;;;;;;;;;;5035445;28;20574;-79
2023/12/19 10:48:04;;;;;;;17.55;6.60;;;;;;;;;;5009536;28;20202;-79
2023/12/19 10:50:31;;;;;;;42.88;12.48;;;;;;;;;;5015612;28;20205;-79
2023/12/19 10:53:05;;;;;;;22.98;8.45;;;;;;;;;;5014230;28;20726;-79
2023/12/19 10:55:37;;;;;;;34.30;10.35;;;;;;;;;;4997795;28;20201;-79
2023/12/19 10:58:05;;;;;;;30.50;9.45;;;;;;;;;;4998250;28;20205;-79
2023/12/19 11:00:34;;;;;;;21.17;9.32;;;;;;;;;;5015668;28;20256;-79
2023/12/19 11:03:34;;;;;;;24.88;8.52;;;;;;;;;;5015150;28;20757;-79
2023/12/19 11:06:06;;;;;;;18.35;6.70;;;;;;;;;;4996620;28;20217;-79
2023/12/19 11:08:33;;;;;;;27.17;9.80;;;;;;;;;;4998179;28;20216;-79
2023/12/19 11:11:10;;;;;;;18.95;8.77;;;;;;;;;;5009238;28;20192;-79
2023/12/19 11:13:41;;;;;;;22.05;8.77;;;;;;;;;;5034953;28;20696;-78
2023/12/19 11:16:41;;;;;;;23.98;7.55;;;;;;;;;;5035027;28;20216;-79
2023/12/19 11:19:15;;;;;;;19.92;7.28;;;;;;;;;;5017365;28;20275;-78
2023/12/19 11:21:49;;;;;;;21.92;9.13;;;;;;;;;;5017755;28;20195;-79
2023/12/19 11:24:22;;;;;;;19.98;8.07;;;;;;;;;;5016993;28;20215;-79
2023/12/19 11:26:58;;;;;;;21.70;8.13;;;;;;;;;;5017704;28;20204;-79
2023/12/19 11:29:47;;;;;;;39.05;10.23;;;;;;;;;;5001046;28;20205;-79
2023/12/19 11:32:26;;;;;;;37.40;18.25;;;;;;;;;;5014955;28;20205;-79
2023/12/19 11:35:11;;;;;;;38.38;10.40;;;;;;;;;;5015173;28;20216;-79
2023/12/19 11:37:41;;;;;;;30.95;9.73;;;;;;;;;;5025523;28;20721;-79
2023/12/19 11:40:09;;;;;;;32.00;10.57;;;;;;;;;;5034511;28;20234;-79
2023/12/19 11:42:39;;;;;;;38.25;12.95;;;;;;;;;;5015649;28;20198;-79
2023/12/19 11:45:16;;;;;;;24.33;7.30;;;;;;;;;;5014745;28;20639;-79
2023/12/19 11:47:44;;;;;;;42.95;11.25;;;;;;;;;;5031236;28;20207;-79
2023/12/19 11:50:11;;;;;;;16.70;7.00;;;;;;;;;;5014407;28;20201;-79
2023/12/19 11:52:42;;;;;;;22.60;9.00;;;;;;;;;;5014498;28;20568;-79
2023/12/19 11:55:21;;;;;;;24.67;8.32;;;;;;;;;;5014283;28;20655;-79
2023/12/19 11:57:49;;;;;;;28.15;9.23;;;;;;;;;;5014721;28;20251;-79
2023/12/19 12:00:26;;;;;;;20.63;8.00;;;;;;;;;;5014337;28;20232;-79
2023/12/19 12:02:54;;;;;;;28.40;9.40;;;;;;;;;;5014145;28;20217;-79
2023/12/19 12:05:21;;;;;;;19.63;7.93;;;;;;;;;;5013976;28;20228;-79
2023/12/19 12:07:50;;;;;;;27.77;8.18;;;;;;;;;;5014127;28;20572;-80
2023/12/19 12:10:22;;;;;;;41.17;10.98;;;;;;;;;;5014183;28;20217;-80
2023/12/19 12:12:50;;;;;;;39.90;10.82;;;;;;;;;;5014186;28;20941;-79
2023/12/19 12:15:22;;;;;;;31.85;13.23;;;;;;;;;;4996679;28;20217;-79
2023/12/19 12:17:50;;;;;;;31.50;9.13;;;;;;;;;;5002257;28;20214;-79
2023/12/19 12:20:27;;;;;;;41.22;11.63;;;;;;;;;;5001670;28;20244;-79
2023/12/19 12:22:57;;;;;;;21.02;8.05;;;;;;;;;;5013836;28;20217;-79
2023/12/19 12:25:24;;;;;;;46.80;13.63;;;;;;;;;;4996605;28;20618;-79
2023/12/19 12:28:17;;;;;;;31.20;9.60;;;;;;;;;;5013864;28;20236;-79
2023/12/19 12:30:45;;;;;;;27.05;7.55;;;;;;;;;;5013841;28;20286;-79
2023/12/19 12:33:13;;;;;;;32.58;8.82;;;;;;;;;;5013857;28;20208;-79
2023/12/19 12:35:40;;;;;;;41.55;11.13;;;;;;;;;;5007456;28;20643;-79
2023/12/19 12:38:17;;;;;;;42.58;17.67;;;;;;;;;;5013239;28;20209;-79
2023/12/19 12:41:01;;;;;;;32.40;9.43;;;;;;;;;;5013270;28;20267;-79
2023/12/19 12:43:35;;;;;;;27.63;8.68;;;;;;;;;;5010804;28;20651;-79
2023/12/19 12:46:13;;;;;;;24.42;7.57;;;;;;;;;;5013091;28;20601;-79
2023/12/19 12:48:46;;;;;;;20.42;7.18;;;;;;;;;;5013020;28;20221;-79
2023/12/19 12:51:16;;;;;;;18.77;7.13;;;;;;;;;;5011870;28;20209;-78
2023/12/19 12:53:44;;;;;;;16.45;6.43;;;;;;;;;;5012479;28;20352;-79
2023/12/19 12:56:18;;;;;;;16.25;6.35;;;;;;;;;;5013398;28;20314;-79
2023/12/19 12:58:48;;;;;;;20.85;9.90;;;;;;;;;;5012599;28;20205;-78
2023/12/19 13:01:15;;;;;;;17.85;6.35;;;;;;;;;;5012957;28;20194;-79
2023/12/19 13:03:43;;;;;;;20.98;6.82;;;;;;;;;;5012686;28;20201;-78
2023/12/19 13:06:10;;;;;;;18.30;7.28;;;;;;;;;;5012783;28;20204;-78
2023/12/19 13:08:37;;;;;;;35.65;11.32;;;;;;;;;;5012854;28;20200;-78
2023/12/19 13:11:07;;;;;;;54.10;13.48;;;;;;;;;;5012899;28;20209;-79
2023/12/19 13:13:35;;;;;;;49.15;9.98;;;;;;;;;;5012358;28;20197;-78
2023/12/19 13:16:03;;;;;;;26.08;7.75;;;;;;;;;;5012693;28;20809;-78
2023/12/19 13:18:30;;;;;;;23.05;7.65;;;;;;;;;;5012478;28;20674;-78
2023/12/19 13:20:57;;;;;;;50.10;16.10;;;;;;;;;;5012907;28;20257;-78
2023/12/19 13:23:24;;;;;;;28.50;8.93;;;;;;;;;;5016004;28;20201;-79
2023/12/19 13:25:53;;;;;;;22.83;7.13;;;;;;;;;;5032588;28;20201;-78
2023/12/19 13:28:20;;;;;;;15.13;6.70;;;;;;;;;;5003105;28;20635;-79
2023/12/19 13:30:48;;;;;;;23.23;10.07;;;;;;;;;;5011880;28;20204;-82
2023/12/19 13:33:16;;;;;;;32.58;8.65;;;;;;;;;;5012117;28;20212;-77
2023/12/19 13:35:43;;;;;;;46.35;13.15;;;;;;;;;;4995115;28;20232;-76
2023/12/19 13:38:11;;;;;;;47.80;11.10;;;;;;;;;;5023428;28;20340;-76
2023/12/19 13:40:38;;;;;;;34.13;10.27;;;;;;;;;;5009474;28;20241;-76
2023/12/19 13:43:05;;;;;;;24.00;8.45;;;;;;;;;;5006985;28;20225;-76
2023/12/19 13:45:33;;;;;;;34.20;9.27;;;;;;;;;;5005489;28;20225;-78
2023/12/19 13:48:02;;;;;;;29.13;9.65;;;;;;;;;;5007823;28;20240;-76
2023/12/19 13:50:30;;;;;;;19.20;7.45;;;;;;;;;;4991459;28;20292;-77
2023/12/19 13:52:57;;;;;;;63.08;17.98;;;;;;;;;;5010278;28;20229;-76
2023/12/19 13:55:24;;;;;;;30.45;8.70;;;;;;;;;;5010143;28;20239;-77
2023/12/19 13:57:51;;;;;;;22.02;7.75;;;;;;;;;;5008214;28;20228;-76
2023/12/19 14:00:20;;;;;;;28.67;8.48;;;;;;;;;;5008453;28;20236;-76
2023/12/19 14:02:58;;;;;;;30.65;11.75;;;;;;;;;;5009178;28;20240;-77
2023/12/19 14:05:26;;;;;;;47.22;11.60;;;;;;;;;;5007300;28;20568;-76
2023/12/19 14:07:59;;;;;;;26.85;7.88;;;;;;;;;;4991554;28;20217;-77
2023/12/19 14:10:29;;;;;;;40.58;10.63;;;;;;;;;;5009694;28;20248;-76
2023/12/19 14:13:00;;;;;;;31.13;8.15;;;;;;;;;;5008644;28;20694;-76
2023/12/19 14:15:27;;;;;;;64.85;13.55;;;;;;;;;;5008692;28;20233;-77
2023/12/19 14:17:55;;;;;;;28.08;8.50;;;;;;;;;;5009771;28;20777;-76
2023/12/19 14:20:22;;;;;;;26.45;7.93;;;;;;;;;;5009310;28;20905;-77
2023/12/19 14:22:49;;;;;;;43.08;10.07;;;;;;;;;;5009611;28;20618;-77
2023/12/19 14:25:16;;;;;;;83.03;23.08;;;;;;;;;;5013739;28;20582;-79
2023/12/19 14:27:44;;;;;;;38.40;10.43;;;;;;;;;;5016270;28;20583;-79
2023/12/19 14:30:11;;;;;;;21.35;7.15;;;;;;;;;;5013538;28;20245;-79